Terminal Aerodrome Forecast
Issued by NWS

Home | Current Version | Previous Version | Graphics & Text | Print | Product List | Glossary On
Versions: 1 2 3 4 5 6 7 8 9 10 11 12 13 14 15
000
FTUS43 KFGF 182000 AAA
TAFBJI
TAF AMD
KBJI 182012Z 1820/1918 16007KT P6SM OVC011
      TEMPO 1820/1824 -SN
     FM190900 15004KT P6SM OVC008=

USA.gov is the U.S. government's official web portal to all federal, state and local government web resources and services.